createdAt,value
2018-09-04T00:00:08.093Z,10.47
2018-09-04T00:02:38.643Z,10.93
2018-09-04T00:05:08.484Z,10.40
2018-09-04T00:07:39.025Z,10.90
2018-09-04T00:10:09.834Z,10.43
2018-09-04T00:12:40.493Z,10.43
2018-09-04T00:15:11.153Z,10.13
2018-09-04T00:17:41.707Z,10.87
2018-09-04T00:20:11.556Z,10.93
2018-09-04T00:22:42.117Z,10.73
2018-09-04T00:25:12.533Z,10.90
2018-09-04T00:27:43.042Z,11.17
2018-09-04T00:30:13.454Z,11.17
2018-09-04T00:32:44.114Z,11.77
2018-09-04T00:35:14.524Z,11.87
2018-09-04T00:37:45.589Z,11.40
2018-09-04T00:40:16.217Z,11.40
2018-09-04T00:42:46.841Z,11.00
2018-09-04T00:45:17.643Z,10.40
2018-09-04T00:47:48.326Z,11.00
2018-09-04T00:50:18.962Z,11.43
2018-09-04T00:52:49.488Z,10.93
2018-09-04T00:55:19.962Z,10.10
2018-09-04T00:57:50.628Z,11.07
2018-09-04T01:00:24.945Z,10.97
2018-09-04T01:02:55.928Z,10.90
2018-09-04T01:05:26.501Z,10.40
2018-09-04T01:07:57.547Z,10.63
2018-09-04T01:10:28.106Z,11.00
2018-09-04T01:12:58.655Z,11.23
2018-09-04T01:15:28.511Z,10.47
2018-09-04T01:17:58.891Z,10.83
2018-09-04T01:20:28.750Z,11.00
2018-09-04T01:22:59.297Z,10.97
2018-09-04T01:25:29.901Z,10.63
2018-09-04T01:28:00.470Z,10.27
2018-09-04T01:30:31.111Z,10.70
2018-09-04T01:33:01.529Z,10.17
2018-09-04T01:35:32.128Z,10.40
2018-09-04T01:38:02.816Z,10.37
2018-09-04T01:40:33.179Z,10.37
2018-09-04T01:43:03.746Z,10.27
2018-09-04T01:45:34.156Z,10.60
2018-09-04T01:48:04.742Z,10.47
2018-09-04T01:50:35.159Z,11.20
2018-09-04T01:53:05.671Z,10.43
2018-09-04T01:55:36.067Z,10.23
2018-09-04T01:58:06.716Z,11.60
2018-09-04T02:00:37.247Z,13.03
2018-09-04T02:03:07.888Z,13.07
2018-09-04T02:05:37.738Z,12.27
2018-09-04T02:08:08.196Z,12.90
2018-09-04T02:10:38.776Z,13.13
2018-09-04T02:13:09.354Z,12.33
2018-09-04T02:15:40.246Z,13.53
2018-09-04T02:18:10.501Z,13.07
2018-09-04T02:20:41.159Z,13.67
2018-09-04T02:23:11.684Z,12.67
2018-09-04T02:25:42.248Z,12.67
2018-09-04T02:28:12.047Z,13.60
2018-09-04T02:30:41.814Z,13.60
2018-09-04T02:33:12.360Z,13.10
2018-09-04T02:35:42.886Z,13.60
2018-09-04T02:38:13.567Z,13.23
2018-09-04T02:40:44.050Z,13.77
2018-09-04T02:43:14.606Z,13.43
2018-09-04T02:45:45.110Z,13.20
2018-09-04T02:48:15.670Z,16.27
2018-09-04T02:50:45.522Z,16.90
2018-09-04T02:53:16.007Z,16.83
2018-09-04T02:55:46.605Z,16.73
2018-09-04T02:58:16.510Z,16.50
2018-09-04T03:00:46.890Z,17.53
2018-09-04T03:03:17.510Z,18.63
2018-09-04T03:05:47.296Z,18.13
2018-09-04T03:08:17.784Z,18.30
2018-09-04T03:10:48.366Z,19.03
2018-09-04T03:13:18.714Z,19.13
2018-09-04T03:15:49.606Z,18.73
2018-09-04T03:18:20.030Z,16.93
2018-09-04T03:20:51.082Z,17.63
2018-09-04T03:23:21.738Z,17.60
2018-09-04T03:25:51.965Z,18.43
2018-09-04T03:28:22.415Z,18.90
2018-09-04T03:30:53.121Z,18.53
2018-09-04T03:33:23.752Z,18.43
2018-09-04T03:35:53.588Z,19.27
2018-09-04T03:38:24.023Z,18.37
2018-09-04T03:40:54.557Z,18.37
2018-09-04T03:43:24.998Z,18.33
2018-09-04T03:45:55.573Z,17.90
2018-09-04T03:48:26.160Z,17.57
2018-09-04T03:50:56.814Z,17.57
2018-09-04T03:53:27.384Z,18.53
2018-09-04T03:55:57.858Z,18.70
2018-09-04T03:58:28.169Z,18.37
2018-09-04T04:00:58.637Z,18.23
2018-09-04T04:03:29.034Z,17.83
2018-09-04T04:05:59.448Z,18.07
2018-09-04T04:08:30.010Z,18.10
2018-09-04T04:11:00.550Z,17.67
2018-09-04T04:13:31.076Z,16.83
2018-09-04T04:16:01.665Z,18.30
2018-09-04T04:18:32.266Z,17.23
2018-09-04T04:21:02.620Z,17.13
2018-09-04T04:23:33.178Z,16.10
2018-09-04T04:26:04.034Z,17.73
2018-09-04T04:28:34.269Z,17.57
2018-09-04T04:31:04.044Z,17.57
2018-09-04T04:33:34.819Z,16.90
2018-09-04T04:36:05.422Z,17.07
2018-09-04T04:38:35.937Z,16.90
2018-09-04T04:41:06.706Z,17.40
2018-09-04T04:43:36.601Z,16.97
2018-09-04T04:46:07.125Z,17.10
2018-09-04T04:48:37.667Z,17.27
2018-09-04T04:51:08.263Z,16.80
2018-09-04T04:53:38.755Z,16.43
2018-09-04T04:56:09.047Z,16.97
2018-09-04T04:58:39.371Z,16.27
2018-09-04T05:01:09.787Z,15.90
2018-09-04T05:03:40.355Z,16.10
2018-09-04T05:06:10.949Z,16.13
2018-09-04T05:08:41.498Z,15.17
2018-09-04T05:11:11.527Z,15.77
2018-09-04T05:13:41.656Z,15.27
2018-09-04T05:16:11.798Z,14.70
2018-09-04T05:18:42.120Z,14.47
2018-09-04T05:21:12.911Z,15.73
2018-09-04T05:23:43.019Z,14.83
2018-09-04T05:26:13.192Z,15.77
2018-09-04T05:28:43.433Z,14.47
2018-09-04T05:31:13.694Z,15.30
2018-09-04T05:33:44.946Z,15.63
2018-09-04T05:36:15.929Z,15.27
2018-09-04T05:38:46.166Z,15.37
2018-09-04T05:41:16.406Z,15.47
2018-09-04T05:43:52.690Z,15.17
2018-09-04T05:46:36.740Z,16.20
2018-09-04T05:49:07.173Z,15.43
2018-09-04T05:51:37.756Z,14.77
2018-09-04T05:54:08.237Z,15.77
2018-09-04T05:56:38.908Z,15.80
2018-09-04T05:59:09.250Z,16.07
2018-09-04T06:01:39.665Z,15.70
2018-09-04T06:04:09.953Z,15.93
2018-09-04T06:06:40.490Z,15.90
2018-09-04T06:09:10.775Z,15.80
2018-09-04T06:11:40.987Z,16.00
2018-09-04T06:14:10.677Z,14.30
2018-09-04T06:16:40.882Z,15.17
2018-09-04T06:19:11.458Z,14.77
2018-09-04T06:21:41.735Z,14.53
2018-09-04T06:24:12.065Z,14.00
2018-09-04T06:26:42.905Z,14.73
2018-09-04T06:29:13.667Z,14.27
2018-09-04T06:31:44.293Z,14.17
2018-09-04T06:34:14.939Z,13.93
2018-09-04T06:36:45.910Z,14.07
2018-09-04T06:39:16.527Z,13.77
2018-09-04T06:41:47.071Z,13.90
2018-09-04T06:44:17.461Z,13.27
2018-09-04T06:46:47.949Z,13.80
2018-09-04T06:49:18.582Z,13.63
2018-09-04T06:51:49.176Z,12.97
2018-09-04T06:54:19.764Z,13.57
2018-09-04T06:56:49.973Z,13.10
2018-09-04T06:59:20.596Z,12.37
2018-09-04T07:01:50.765Z,13.53
2018-09-04T07:04:20.606Z,13.60
2018-09-04T07:06:51.135Z,13.83
2018-09-04T07:09:21.733Z,13.10
2018-09-04T07:11:52.242Z,13.30
2018-09-04T07:14:22.824Z,12.57
2018-09-04T07:16:53.220Z,13.57
2018-09-04T07:19:23.640Z,12.63
2018-09-04T07:21:53.473Z,12.50
2018-09-04T07:24:23.886Z,12.23
2018-09-04T07:26:54.510Z,12.40
2018-09-04T07:29:25.096Z,12.53
2018-09-04T07:31:55.708Z,12.40
2018-09-04T07:34:26.235Z,12.10
2018-09-04T07:36:56.879Z,12.10
2018-09-04T07:39:27.474Z,12.60
2018-09-04T07:41:58.064Z,11.70
2018-09-04T07:44:27.908Z,12.07
2018-09-04T07:46:58.443Z,11.63
2018-09-04T07:49:28.937Z,12.17
2018-09-04T07:51:59.423Z,11.83
2018-09-04T07:54:29.973Z,12.40
2018-09-04T07:57:00.513Z,12.47
2018-09-04T07:59:31.010Z,10.43
2018-09-04T08:02:01.421Z,10.27
2018-09-04T08:04:32.018Z,9.53
2018-09-04T08:07:02.683Z,10.83
2018-09-04T08:09:33.408Z,10.60
2018-09-04T08:12:03.630Z,10.00
2018-09-04T08:14:34.346Z,10.70
2018-09-04T08:17:04.930Z,10.50
2018-09-04T08:19:35.551Z,9.67
2018-09-04T08:22:06.987Z,9.40
2018-09-04T08:24:37.445Z,9.40
2018-09-04T08:27:07.968Z,9.50
2018-09-04T08:29:38.502Z,9.83
2018-09-04T08:32:09.076Z,9.07
2018-09-04T08:34:38.853Z,9.17
2018-09-04T08:37:09.262Z,8.53
2018-09-04T08:39:40.051Z,8.93
2018-09-04T08:42:09.997Z,8.70
2018-09-04T08:44:40.467Z,8.57
2018-09-04T08:47:11.094Z,8.70
2018-09-04T08:49:41.654Z,8.53
2018-09-04T08:52:11.502Z,8.40
2018-09-04T08:54:42.232Z,8.93
2018-09-04T08:57:12.892Z,8.60
2018-09-04T08:59:43.796Z,8.00
2018-09-04T09:02:13.970Z,8.73
2018-09-04T09:04:44.626Z,8.20
2018-09-04T09:07:15.038Z,7.87
2018-09-04T09:09:44.805Z,7.97
2018-09-04T09:12:15.065Z,7.67
2018-09-04T09:14:45.686Z,8.57
2018-09-04T09:17:16.155Z,8.67
2018-09-04T09:22:39.769Z,7.80
2018-09-04T09:25:10.253Z,8.03
2018-09-04T09:27:40.077Z,8.00
2018-09-04T10:02:04.387Z,6.57
2018-09-04T10:04:34.965Z,5.90
2018-09-04T10:07:05.591Z,5.23
2018-09-04T10:09:35.987Z,5.40
2018-09-04T10:12:07.102Z,6.00
2018-09-04T10:14:37.761Z,5.57
2018-09-04T10:17:08.913Z,5.70
2018-09-04T10:19:39.365Z,5.50
2018-09-04T10:22:09.812Z,5.90
2018-09-04T10:24:40.205Z,5.90
2018-09-04T10:27:10.595Z,5.90
2018-09-04T10:29:40.933Z,5.63
2018-09-04T10:32:11.476Z,5.80
2018-09-04T10:34:41.947Z,5.90
2018-09-04T10:37:12.495Z,5.00
2018-09-04T10:39:48.327Z,5.80
2018-09-04T10:42:23.737Z,5.27
2018-09-04T10:44:54.177Z,5.40
2018-09-04T10:47:24.666Z,5.67
2018-09-04T10:49:55.250Z,5.37
2018-09-04T10:52:25.618Z,5.20
2018-09-04T10:54:56.091Z,6.17
2018-09-04T10:57:26.236Z,6.03
2018-09-04T10:59:56.343Z,5.87
2018-09-04T11:02:26.090Z,6.00
2018-09-04T13:52:26.306Z,4.77
2018-09-04T13:54:56.875Z,3.93
2018-09-04T13:57:27.990Z,4.03
2018-09-04T13:59:58.510Z,4.53
2018-09-04T14:02:29.083Z,4.13
2018-09-04T14:04:59.157Z,4.20
2018-09-04T14:07:29.701Z,3.47
2018-09-04T14:10:00.152Z,3.70
2018-09-04T14:12:30.702Z,3.57
2018-09-04T14:15:00.872Z,3.60
2018-09-04T14:17:31.018Z,3.73
2018-09-04T14:20:01.446Z,3.40
2018-09-04T14:22:31.998Z,3.90
2018-09-04T14:25:02.157Z,4.47
2018-09-04T14:27:32.569Z,3.60
2018-09-04T14:30:16.908Z,3.87
2018-09-04T14:32:33.650Z,3.40
2018-09-04T14:35:04.081Z,3.33
2018-09-04T14:37:34.445Z,3.40
2018-09-04T14:40:04.786Z,3.10
2018-09-04T14:42:34.923Z,3.13
2018-09-04T14:45:05.169Z,2.97
2018-09-04T14:47:35.695Z,3.57
2018-09-04T14:50:06.286Z,3.40
2018-09-04T14:52:36.788Z,3.37
2018-09-04T14:55:07.272Z,3.57
2018-09-04T14:57:37.682Z,3.70
2018-09-04T15:00:08.386Z,3.30
2018-09-04T15:02:39.045Z,3.70
2018-09-04T15:05:09.116Z,3.50
2018-09-04T15:07:39.469Z,3.40
2018-09-04T15:10:09.896Z,3.20
2018-09-04T15:12:40.398Z,3.00
2018-09-04T15:15:10.833Z,4.07
2018-09-04T15:17:40.634Z,3.27
2018-09-04T15:20:10.945Z,3.23
2018-09-04T15:22:41.755Z,2.90
2018-09-04T15:25:12.120Z,3.20
2018-09-04T15:27:42.607Z,3.23
2018-09-04T15:30:12.937Z,3.17
2018-09-04T15:32:43.373Z,3.60
2018-09-04T15:35:13.826Z,3.33
2018-09-04T15:37:44.627Z,3.47
2018-09-04T15:40:15.047Z,3.23
2018-09-04T15:42:45.568Z,3.30
2018-09-04T15:45:15.898Z,3.33
2018-09-04T15:47:46.262Z,3.10
2018-09-04T15:50:16.647Z,5.13
2018-09-04T15:52:47.096Z,3.60
2018-09-04T15:55:17.535Z,3.30
2018-09-04T15:57:48.074Z,3.40
2018-09-04T16:00:18.532Z,3.20
2018-09-04T16:02:48.949Z,3.10
2018-09-04T16:05:18.557Z,3.30
2018-09-04T16:07:48.922Z,3.20
2018-09-04T16:10:19.344Z,3.00
2018-09-04T16:12:50.653Z,3.37
2018-09-04T16:15:20.502Z,3.50
2018-09-04T16:17:50.928Z,3.03
2018-09-04T16:20:21.251Z,3.37
2018-09-04T16:22:51.623Z,3.00
2018-09-04T16:25:22.042Z,3.33
2018-09-04T16:27:52.527Z,3.37
2018-09-04T16:30:22.924Z,2.87
2018-09-04T16:32:52.642Z,3.13
2018-09-04T16:35:23.028Z,3.30
2018-09-04T16:37:53.183Z,3.30
2018-09-04T16:40:23.551Z,3.73
2018-09-04T16:42:53.956Z,4.03
2018-09-04T16:45:24.081Z,4.60
2018-09-04T16:47:54.243Z,5.60
2018-09-04T16:50:24.680Z,5.50
2018-09-04T16:52:55.055Z,4.63
2018-09-04T16:55:25.171Z,4.33
2018-09-04T16:57:55.496Z,3.90
2018-09-04T17:00:25.868Z,4.37
2018-09-04T17:02:56.001Z,4.93
2018-09-04T17:05:26.639Z,4.67
2018-09-04T17:07:56.503Z,3.90
2018-09-04T17:10:26.874Z,3.70
2018-09-04T17:12:57.159Z,3.70
2018-09-04T17:15:27.522Z,4.60
2018-09-04T17:17:57.677Z,5.23
2018-09-04T17:23:21.488Z,4.30
2018-09-04T17:25:52.889Z,3.67
2018-09-04T17:28:23.345Z,3.80
2018-09-04T17:30:53.715Z,4.70
2018-09-04T17:33:23.845Z,4.07
2018-09-04T17:35:54.335Z,4.33
2018-09-04T17:38:24.580Z,6.57
2018-09-04T17:40:54.675Z,6.90
2018-09-04T17:43:24.827Z,5.63
2018-09-04T17:45:55.069Z,5.20
2018-09-04T17:48:25.898Z,6.53
2018-09-04T17:50:56.065Z,6.00
2018-09-04T17:55:02.844Z,7.17
2018-09-04T17:57:33.071Z,7.37
2018-09-04T18:00:03.294Z,6.10
2018-09-04T18:02:33.383Z,10.07
2018-09-04T18:05:03.850Z,14.17
2018-09-04T18:07:33.987Z,23.07
2018-09-04T18:10:06.080Z,18.83
2018-09-04T18:12:36.049Z,15.77
2018-09-04T18:15:09.750Z,8.37
2018-09-04T18:17:40.032Z,6.43
2018-09-04T20:07:19.154Z,6.20
2018-09-04T20:09:49.730Z,5.90
2018-09-04T20:12:20.302Z,6.17
2018-09-04T20:14:50.740Z,6.40
2018-09-04T20:17:21.198Z,6.20
2018-09-04T20:19:51.922Z,6.23
2018-09-04T20:22:23.202Z,5.87
2018-09-04T20:24:54.015Z,6.40
2018-09-04T20:27:24.543Z,6.07
2018-09-04T20:29:55.109Z,6.30
2018-09-04T20:32:25.930Z,5.80
2018-09-04T20:34:56.505Z,6.80
2018-09-04T20:37:27.086Z,6.60
2018-09-04T20:39:57.462Z,6.10
2018-09-04T20:42:27.926Z,6.07
2018-09-04T20:44:58.465Z,6.43
2018-09-04T20:47:28.820Z,5.93
2018-09-04T20:49:59.330Z,6.73
2018-09-04T20:52:29.845Z,6.50
2018-09-04T20:55:00.188Z,6.53
2018-09-04T20:57:36.913Z,6.60
2018-09-04T21:00:21.285Z,6.20
2018-09-04T21:03:02.665Z,5.80
2018-09-04T21:05:43.389Z,6.67
2018-09-04T21:08:30.347Z,6.63
2018-09-04T21:11:00.998Z,6.73
2018-09-04T21:13:31.418Z,6.93
2018-09-04T21:16:01.936Z,6.77
2018-09-04T21:18:32.580Z,6.73
2018-09-04T21:21:03.002Z,6.17
2018-09-04T21:23:33.362Z,6.10
2018-09-04T21:26:03.852Z,6.33
2018-09-04T21:28:34.477Z,6.90
2018-09-04T21:31:04.901Z,7.23
2018-09-04T21:33:35.478Z,6.00
2018-09-04T21:36:06.068Z,6.93
2018-09-04T21:38:36.630Z,7.00
2018-09-04T21:41:06.977Z,7.00
2018-09-04T21:43:37.372Z,7.07
2018-09-04T21:46:08.063Z,7.20
2018-09-04T21:48:38.477Z,7.57
2018-09-04T21:51:08.897Z,6.83
2018-09-04T21:53:39.508Z,7.10
2018-09-04T21:56:09.949Z,7.60
2018-09-04T21:58:40.480Z,7.23
2018-09-04T22:01:11.467Z,7.30
2018-09-04T22:03:42.270Z,7.30
2018-09-04T22:06:12.806Z,7.20
2018-09-04T22:08:43.294Z,7.57
2018-09-04T22:11:13.656Z,7.00
2018-09-04T22:13:44.275Z,6.77
2018-09-04T22:16:15.572Z,7.10
2018-09-04T22:18:46.634Z,7.57
2018-09-04T22:21:16.990Z,7.77
2018-09-04T22:23:49.567Z,8.00
2018-09-04T22:26:35.632Z,7.40
2018-09-04T22:29:06.226Z,7.20
2018-09-04T22:31:37.689Z,7.33
2018-09-04T22:34:08.102Z,7.33
2018-09-04T22:36:40.973Z,7.53
2018-09-04T22:39:11.658Z,8.20
2018-09-04T22:41:43.893Z,8.83
2018-09-04T22:44:15.218Z,7.93
2018-09-04T22:46:45.593Z,7.87
2018-09-04T22:49:15.983Z,8.00
2018-09-04T22:51:46.499Z,7.97
2018-09-04T22:54:18.542Z,8.40
2018-09-04T22:56:49.056Z,8.00
2018-09-04T22:59:18.865Z,8.20
2018-09-04T23:01:48.898Z,8.30
2018-09-04T23:04:18.453Z,9.10
2018-09-04T23:06:49.158Z,8.63
2018-09-04T23:09:19.731Z,8.63
2018-09-04T23:11:49.843Z,8.50
2018-09-04T23:14:20.027Z,8.43
2018-09-04T23:16:50.198Z,9.13
2018-09-04T23:19:20.386Z,9.37
2018-09-04T23:21:50.557Z,9.13
2018-09-04T23:24:20.749Z,9.17
2018-09-04T23:26:50.930Z,9.57
2018-09-04T23:29:21.101Z,9.40
2018-09-04T23:31:51.573Z,9.50
2018-09-04T23:34:21.718Z,9.53
2018-09-04T23:36:51.989Z,9.57
2018-09-04T23:39:22.098Z,9.10
2018-09-04T23:41:52.292Z,9.17
2018-09-04T23:44:22.554Z,9.40
2018-09-04T23:46:52.721Z,9.53
2018-09-04T23:49:22.909Z,8.93
2018-09-04T23:51:52.499Z,9.57
2018-09-04T23:54:22.858Z,9.80
2018-09-04T23:56:53.041Z,9.83
2018-09-04T23:59:23.215Z,9.73
